Aérodrome :
LOGIN :

S'inscrire | Disclaimer

   EN    FR    IT 

 










Légende :    VFR   VFR Marginal   IFR   IFR Intensif   IFR Très Intensif
Visi : 
Plafond : 
>= 8 km
>= 3000ft
5 à 8 km
1000 à 3000 ft
1500m à 5 km
500 à 1000 ft
800 à 1500m
200 à 500 ft
< 800m
< 200 ft
Symboles :   Orages  Brouillard  Fortes neiges  Fortes précipitations  Vent > 20 kt
SIGMETs :   Divers  Orages  Givrage  Turbulence  Onde Orograph.  Cendres Volcan.






- Altitude de l'aérodrome : 675 ft
- Code IATA : RZE


EPRZ - Rzeszow-Jasionka

DERNIER METAR :
  • 270500Z 27012KT 9999 BKN030 01/M02 Q1001

METARs EXPIRÉS :
  • 270430Z 27012KT 9999 BKN030 01/M02 Q1001
  • 270400Z 27011KT 9999 BKN030 01/M02 Q1000
  • 270330Z 27014KT 9999 BKN026 01/M02 Q1000
  • 270300Z 27014KT 9999 FEW026 00/M03 Q1000
  • 270230Z 27011KT CAVOK 00/M02 Q0999

TAF AMD TAF EPRZ
Valide du 27 à 04h jusqu'au 28 à 00h UTC


270441Z 2704/2724 27012KT 9999 BKN030
TEMPO 2705/2712 BKN013
TEMPO 2712/2717 27015G27KT 4000 SHRASN BKN014CB
BECMG 2717/2719 21006KT



MET'MAP, la Météo Aéronautique d'un coup d'oeil ! - Copyright ORBIFLY Décembre 2007 - Disclaimer

ORBIFLY MET'MAP TEAM :

Programmation & Développement : Alexandra Zaïnal
Sur une idée originale de : Baudouin d'Aumeries
Assistance à la programmation : Marc-Olivier Méhu
Soutien technique & logistique : Manuel Goepfert

Contact : metmap@orbifly.com




SOURCES & CREDITS :

   NOAA